VOML/IXE METAR and TAF weather

Enter ICAO airport designator
Station Type Date Time Source
VOML METAR 2019/08/23 15:30 UTC NOAA

VOML 231530Z 00000KT 2000 -RA BR FEW004 SCT012 BKN080 24/23 Q1011 NOSIG


Station Type Date Time Source
VOML Decoded METAR 2019/08/23 15:30 UTC NOAA

Station name not available
Aug 23, 2019 - 11:30 AM EDT / 2019.08.23 1530 UTC
Wind: Calm:0
Visibility: 1 mile(s):0
Sky conditions: mostly cloudy
Weather: light rain; mist
Temperature: 75 F (24 C)
Dew Point: 73 F (23 C)
Relative Humidity: 94%
Pressure (altimeter): 29.85 in. Hg (1011 hPa)
ob: VOML 231530Z 00000KT 2000 -RA BR FEW004 SCT012 BKN080 24/23 Q1011 NOSIG
cycle: 15

Station Type Date Time Source
VOML TAF 2019/08/23 12:00 UTC NOAA

TAF VOML 231100Z 2312/2418 27010KT 6000 SCT008 SCT012 BKN080
TEMPO 2312/2318 3000 RA DZ SCT004 SCT012 FEW025CB BKN080
BECMG 2314/2315 VRB02KT
TEMPO 2321/2403 2000 RA BR SCT004 SCT012 BKN080
BECMG 2405/2406 27010KT
TEMPO 2409/2415 3000 RA DZ SCT004 SCT012 FEW025CB BKN080
BECMG 2414/2415 VRB02KT

Example: see airport list